Time;durP1;ratioP1;P1;durP2;ratioP2;P2;SDS_P1;SDS_P2;PMS_P1;PMS_P2;Temp;Humidity;BMP_temperature;BMP_pressure;BME280_temperature;BME280_humidity;BME280_pressure;Samples;Min_cycle;Max_cycle;Signal;HPM_P1;HPM_P2
2021/04/30 00:00:29;;;;;;;10.00;7.03;;;;;;;13.25;66.15;98822.19;6304375;22;20004;-78
2021/04/30 00:02:54;;;;;;;9.13;6.85;;;;;;;13.19;66.00;98826.88;6302311;22;20341;-80
2021/04/30 00:05:20;;;;;;;10.00;7.75;;;;;;;13.15;66.62;98827.78;6277264;22;20060;-79
2021/04/30 00:07:45;;;;;;;10.98;7.30;;;;;;;13.08;66.56;98837.00;6304404;22;20010;-83
2021/04/30 00:10:11;;;;;;;9.68;6.30;;;;;;;13.08;66.89;98838.91;6302210;22;20126;-82
2021/04/30 00:12:36;;;;;;;9.75;6.45;;;;;;;13.05;66.83;98851.03;6276435;22;20010;-79
2021/04/30 00:15:03;;;;;;;9.93;6.25;;;;;;;13.05;66.87;98852.91;6302853;22;20000;-81
2021/04/30 00:17:29;;;;;;;10.05;6.68;;;;;;;13.09;66.80;98848.56;6302141;22;19999;-82
2021/04/30 00:19:54;;;;;;;11.75;7.05;;;;;;;13.08;66.98;98846.94;6302660;22;20094;-80
2021/04/30 00:22:20;;;;;;;10.13;6.80;;;;;;;13.06;67.06;98843.75;6276865;22;20003;-81
2021/04/30 00:24:45;;;;;;;9.77;6.85;;;;;;;13.08;67.06;98846.94;6302373;22;19999;-81
2021/04/30 00:27:10;;;;;;;9.85;6.63;;;;;;;13.08;66.89;98850.41;6276458;22;20400;-79
2021/04/30 00:29:36;;;;;;;10.45;7.18;;;;;;;13.09;67.49;98849.34;6302422;22;20010;-78
2021/04/30 00:32:01;;;;;;;9.18;7.05;;;;;;;13.10;67.22;98850.16;6301956;22;20030;-79
2021/04/30 00:34:27;;;;;;;8.95;6.60;;;;;;;13.11;66.88;98846.38;6276949;22;20025;-83
2021/04/30 00:36:52;;;;;;;7.25;6.53;;;;;;;13.05;66.76;98842.16;6302839;22;19995;-82
2021/04/30 00:39:18;;;;;;;8.60;6.82;;;;;;;12.96;66.93;98842.88;6275713;22;20405;-78
2021/04/30 00:41:43;;;;;;;7.22;6.05;;;;;;;12.94;67.42;98825.47;6276820;22;19999;-80
2021/04/30 00:44:10;;;;;;;13.07;8.35;;;;;;;12.92;67.40;98824.97;6276464;22;20379;-76
2021/04/30 00:46:36;;;;;;;10.93;7.60;;;;;;;12.94;66.97;98847.72;6303693;22;19999;-79
2021/04/30 00:49:03;;;;;;;13.82;7.55;;;;;;;12.95;67.57;98843.16;6302344;22;20003;-79
2021/04/30 00:51:28;;;;;;;8.57;6.57;;;;;;;12.98;67.18;98839.88;6302334;22;20005;-80
2021/04/30 00:53:54;;;;;;;9.68;6.65;;;;;;;12.98;67.51;98854.09;6276077;22;20003;-80
2021/04/30 00:56:21;;;;;;;12.07;6.80;;;;;;;13.00;67.03;98848.44;6276621;22;20010;-79
2021/04/30 00:58:47;;;;;;;12.80;6.88;;;;;;;13.03;66.89;98847.84;6276453;22;20057;-81
2021/04/30 01:01:13;;;;;;;12.38;6.40;;;;;;;13.03;67.17;98836.31;6276056;22;20015;-82
2021/04/30 01:03:41;;;;;;;9.68;6.28;;;;;;;13.01;67.07;98844.69;6276388;22;19999;-77
2021/04/30 01:06:06;;;;;;;9.20;6.53;;;;;;;13.00;66.95;98816.25;6245623;22;20103;-75
2021/04/30 01:08:32;;;;;;;9.85;6.85;;;;;;;12.90;67.04;98806.50;6245356;22;20046;-76
2021/04/30 01:10:58;;;;;;;10.07;7.30;;;;;;;12.86;67.38;98807.38;6272838;22;20413;-81
2021/04/30 01:13:23;;;;;;;10.93;7.55;;;;;;;12.80;67.57;98828.94;6245925;22;20313;-81
2021/04/30 01:15:48;;;;;;;9.50;7.05;;;;;;;12.78;67.94;98833.78;6245186;22;20322;-81
2021/04/30 01:18:14;;;;;;;12.90;6.82;;;;;;;12.77;67.73;98826.84;6245474;22;20447;-81
2021/04/30 01:20:39;;;;;;;10.05;6.78;;;;;;;12.77;67.80;98801.91;6245868;22;20002;-79
2021/04/30 01:23:05;;;;;;;9.02;7.15;;;;;;;12.75;67.68;98812.13;6245185;22;20000;-82
2021/04/30 01:25:37;;;;;;;9.80;6.43;;;;;;;12.73;67.70;98803.56;6248069;22;20420;-81
2021/04/30 01:28:03;;;;;;;11.05;7.45;;;;;;;12.70;68.00;98799.59;6272974;22;20344;-80
2021/04/30 01:30:31;;;;;;;14.38;7.85;;;;;;;12.67;68.13;98799.38;6272660;22;20008;-76
2021/04/30 01:32:58;;;;;;;12.18;7.63;;;;;;;12.64;68.04;98785.47;6272695;22;20031;-80
2021/04/30 01:35:32;;;;;;;11.30;7.03;;;;;;;12.61;68.43;98779.91;6247576;22;20004;-78
2021/04/30 01:37:59;;;;;;;11.90;6.93;;;;;;;12.61;67.89;98788.75;6274047;22;20007;-76
2021/04/30 01:40:31;;;;;;;8.80;6.43;;;;;;;12.60;68.16;98784.47;6274694;22;20035;-78
2021/04/30 01:43:09;;;;;;;9.35;7.05;;;;;;;12.62;68.41;98787.66;6246982;22;20011;-77
2021/04/30 01:45:36;;;;;;;10.73;7.18;;;;;;;12.64;68.43;98777.41;6247226;22;20011;-81
2021/04/30 01:48:03;;;;;;;10.10;7.30;;;;;;;12.67;68.44;98781.41;6247352;22;20439;-77
2021/04/30 01:50:28;;;;;;;9.90;7.13;;;;;;;12.67;68.14;98791.34;6273087;22;19999;-79
2021/04/30 01:52:54;;;;;;;9.35;6.97;;;;;;;12.68;68.36;98792.94;6246967;22;20014;-77
2021/04/30 01:55:19;;;;;;;9.80;6.72;;;;;;;12.69;68.26;98800.69;6247013;22;20008;-77
2021/04/30 01:57:48;;;;;;;10.60;7.80;;;;;;;12.72;68.42;98810.84;6246957;22;20000;-78
2021/04/30 02:00:19;;;;;;;11.05;7.75;;;;;;;12.71;68.42;98817.28;6246890;22;20072;-78
2021/04/30 02:02:49;;;;;;;9.95;6.45;;;;;;;12.73;67.43;98816.97;6272758;22;20054;-79
2021/04/30 02:05:15;;;;;;;10.60;6.97;;;;;;;12.71;67.20;98817.28;6292870;22;20011;-78
2021/04/30 02:07:40;;;;;;;8.18;6.13;;;;;;;12.70;66.91;98817.59;6302835;22;19999;-79
2021/04/30 02:10:10;;;;;;;8.95;6.68;;;;;;;12.69;67.25;98830.19;6277635;22;20384;-80
2021/04/30 02:12:35;;;;;;;9.88;6.03;;;;;;;12.66;67.05;98838.84;6302830;22;20003;-78
2021/04/30 02:15:00;;;;;;;11.00;7.55;;;;;;;12.63;67.76;98844.78;6302806;22;20082;-78
2021/04/30 02:17:30;;;;;;;11.57;6.70;;;;;;;12.63;67.92;98844.78;6303734;22;19999;-77
2021/04/30 02:19:56;;;;;;;11.65;7.90;;;;;;;12.59;67.88;98847.25;6304887;22;20426;-75
2021/04/30 02:22:22;;;;;;;12.45;8.60;;;;;;;12.59;68.86;98849.94;6304514;22;20332;-78
2021/04/30 02:24:48;;;;;;;11.27;7.93;;;;;;;12.50;69.02;98843.66;6278021;22;20003;-80
2021/04/30 02:27:14;;;;;;;13.63;9.15;;;;;;;12.41;69.52;98840.84;6277449;22;20470;-81
2021/04/30 02:29:39;;;;;;;13.65;8.63;;;;;;;12.32;70.23;98864.06;6303197;22;20003;-79
2021/04/30 02:32:04;;;;;;;15.88;9.88;;;;;;;12.30;69.92;98850.16;6303274;22;20502;-78
2021/04/30 02:34:30;;;;;;;13.85;9.68;;;;;;;12.24;70.99;98875.44;6277660;22;20000;-78
2021/04/30 02:36:55;;;;;;;11.90;9.43;;;;;;;12.22;70.85;98866.88;6277339;22;20638;-77
2021/04/30 02:39:23;;;;;;;16.42;10.13;;;;;;;12.21;71.08;98868.78;6303205;22;20003;-82
2021/04/30 02:41:49;;;;;;;15.02;9.60;;;;;;;12.23;70.82;98868.47;6277276;22;20010;-85
2021/04/30 02:44:14;;;;;;;14.05;9.95;;;;;;;12.25;71.02;98874.34;6303017;22;20003;-82
2021/04/30 02:46:40;;;;;;;16.20;11.02;;;;;;;12.29;71.28;98854.72;6276969;22;20061;-82
2021/04/30 02:49:06;;;;;;;17.90;10.88;;;;;;;12.30;71.07;98853.63;6303189;22;20072;-80
2021/04/30 02:51:32;;;;;;;16.80;11.00;;;;;;;12.29;70.66;98845.88;6303459;22;20003;-82
2021/04/30 02:53:58;;;;;;;18.20;10.70;;;;;;;12.27;71.08;98846.16;6303114;22;20408;-77
2021/04/30 02:56:23;;;;;;;20.98;13.30;;;;;;;12.31;70.88;98835.66;6302635;22;20006;-79
2021/04/30 02:58:53;;;;;;;22.63;11.43;;;;;;;12.34;70.70;98835.09;6304796;22;20006;-81
2021/04/30 03:01:19;;;;;;;15.27;10.55;;;;;;;12.33;70.77;98839.63;6302088;22;20007;-80
2021/04/30 03:03:44;;;;;;;18.70;11.60;;;;;;;12.27;70.89;98838.13;6303177;22;20014;-81
2021/04/30 03:06:10;;;;;;;19.42;11.82;;;;;;;12.34;70.94;98853.84;6277195;22;20053;-80
2021/04/30 03:08:35;;;;;;;16.90;10.77;;;;;;;12.37;71.00;98863.19;6276909;22;20637;-79
2021/04/30 03:11:01;;;;;;;15.77;10.68;;;;;;;12.41;70.83;98877.59;6302999;22;20009;-79
2021/04/30 03:13:26;;;;;;;18.13;12.75;;;;;;;12.44;70.94;98888.53;6276865;22;20007;-77
2021/04/30 03:15:51;;;;;;;22.58;13.10;;;;;;;12.46;70.79;98890.94;6303687;22;19999;-78
2021/04/30 03:18:17;;;;;;;20.63;12.80;;;;;;;12.49;70.81;98896.50;6302835;22;19999;-76
2021/04/30 03:20:42;;;;;;;21.63;11.35;;;;;;;12.56;70.36;98887.28;6303282;22;20137;-78
2021/04/30 03:23:08;;;;;;;21.13;12.82;;;;;;;12.59;70.87;98878.66;6276347;22;20412;-79
2021/04/30 03:25:33;;;;;;;19.20;11.05;;;;;;;12.63;70.60;98866.25;6277068;22;20010;-80
2021/04/30 03:27:59;;;;;;;18.70;12.10;;;;;;;12.63;70.38;98868.94;6302980;22;19995;-80
2021/04/30 03:30:24;;;;;;;15.65;10.77;;;;;;;12.63;70.51;98883.16;6301995;22;20546;-81
2021/04/30 03:32:49;;;;;;;20.95;12.27;;;;;;;12.65;70.47;98896.28;6277051;22;20090;-80
2021/04/30 03:35:18;;;;;;;20.35;10.95;;;;;;;12.69;70.50;98899.16;6302491;22;20002;-81
2021/04/30 03:37:45;;;;;;;20.98;12.82;;;;;;;12.71;70.80;98905.81;6302181;22;20011;-80
2021/04/30 03:40:11;;;;;;;25.77;13.75;;;;;;;12.78;70.32;98913.50;6302255;22;20003;-80
2021/04/30 03:42:37;;;;;;;22.85;12.05;;;;;;;12.79;70.29;98921.25;6276897;22;20013;-79
2021/04/30 03:45:03;;;;;;;20.67;12.95;;;;;;;12.82;70.06;98935.97;6302088;22;20003;-80
2021/04/30 03:47:28;;;;;;;30.50;18.00;;;;;;;12.88;70.08;98942.84;6301951;22;20010;-81
2021/04/30 03:49:53;;;;;;;22.58;13.18;;;;;;;12.89;70.24;98936.41;6276836;22;20003;-79
2021/04/30 03:52:19;;;;;;;21.77;13.82;;;;;;;12.93;69.91;98940.09;6302041;22;20007;-82
2021/04/30 03:54:44;;;;;;;29.30;15.43;;;;;;;12.98;70.02;98944.56;6277012;22;20003;-82
2021/04/30 03:57:10;;;;;;;22.83;14.68;;;;;;;12.99;69.53;98948.84;6276226;22;20014;-81
2021/04/30 03:59:35;;;;;;;29.15;16.92;;;;;;;13.02;69.57;98940.19;6276454;22;20000;-77
2021/04/30 04:02:00;;;;;;;28.30;16.58;;;;;;;13.07;69.29;98939.31;6276811;22;20003;-77
2021/04/30 04:04:26;;;;;;;26.27;16.70;;;;;;;13.09;69.40;98943.31;6276134;22;20046;-79
2021/04/30 04:06:51;;;;;;;26.73;16.08;;;;;;;13.12;68.78;98944.59;6302262;22;20038;-79
2021/04/30 04:09:17;;;;;;;25.33;16.95;;;;;;;13.16;68.78;98947.50;6302190;22;19995;-81
2021/04/30 04:11:44;;;;;;;25.88;15.05;;;;;;;13.20;69.11;98956.56;6276684;22;20474;-80
2021/04/30 04:14:09;;;;;;;19.40;12.88;;;;;;;13.22;68.63;98957.03;6276214;22;20000;-80
2021/04/30 04:16:35;;;;;;;21.02;13.55;;;;;;;13.25;68.41;98956.47;6276888;22;20446;-81
2021/04/30 04:19:01;;;;;;;19.65;12.90;;;;;;;13.25;68.33;98964.53;6276382;22;20045;-83
2021/04/30 04:21:26;;;;;;;17.15;11.25;;;;;;;13.24;68.47;98960.25;6300903;22;20125;-79
2021/04/30 04:23:52;;;;;;;17.10;11.07;;;;;;;13.23;68.34;98961.31;6301940;22;19999;-80
2021/04/30 04:26:17;;;;;;;19.30;12.00;;;;;;;13.24;68.70;98963.75;6303801;22;20003;-82
2021/04/30 04:28:43;;;;;;;20.80;13.07;;;;;;;13.26;68.42;98953.47;6275978;22;20007;-83
2021/04/30 04:31:08;;;;;;;27.90;12.82;;;;;;;13.32;68.46;98958.75;6276534;22;20456;-81
2021/04/30 04:33:34;;;;;;;17.50;11.82;;;;;;;13.33;68.68;98971.09;6276632;22;20003;-88
2021/04/30 04:36:00;;;;;;;16.02;10.63;;;;;;;13.32;68.61;98969.50;6303539;22;20003;-79
2021/04/30 04:38:27;;;;;;;20.73;9.73;;;;;;;13.35;68.26;98977.75;6275679;22;20101;-85
2021/04/30 04:40:53;;;;;;;13.38;9.23;;;;;;;13.40;68.36;98983.09;6303424;22;20006;-90
2021/04/30 04:43:18;;;;;;;13.75;9.30;;;;;;;13.49;68.55;98971.66;6278334;22;19995;-85
2021/04/30 04:45:44;;;;;;;14.45;9.70;;;;;;;13.58;68.52;98986.78;6280137;22;20035;-90
2021/04/30 04:48:09;;;;;;;13.23;9.23;;;;;;;13.71;68.29;98995.97;6280845;22;20490;-89
2021/04/30 04:50:35;;;;;;;14.13;9.77;;;;;;;13.94;67.96;98990.69;6281429;22;20041;-90
2021/04/30 04:53:00;;;;;;;11.88;8.63;;;;;;;14.33;67.71;98983.97;6281281;22;20059;-88
2021/04/30 04:55:26;;;;;;;15.57;9.63;;;;;;;14.75;65.84;98975.78;6309961;22;20465;-88
2021/04/30 04:57:51;;;;;;;21.80;11.57;;;;;;;15.16;65.17;98982.88;6306873;22;20339;-81
2021/04/30 05:00:17;;;;;;;19.70;10.82;;;;;;;15.56;63.40;98984.03;6303050;22;20460;-82
2021/04/30 05:02:43;;;;;;;15.02;10.93;;;;;;;15.88;62.58;98984.81;6278043;22;20010;-82
2021/04/30 05:05:09;;;;;;;13.98;10.75;;;;;;;16.11;61.34;98988.22;6277103;22;20007;-83
2021/04/30 05:07:35;;;;;;;16.60;10.82;;;;;;;16.25;61.03;98980.78;6277405;22;19999;-83
2021/04/30 05:10:00;;;;;;;19.83;10.15;;;;;;;16.43;60.44;98988.88;6277432;22;19999;-85
2021/04/30 05:12:26;;;;;;;14.32;10.48;;;;;;;16.44;60.04;98987.78;6302205;22;20033;-83
2021/04/30 05:14:52;;;;;;;15.40;11.10;;;;;;;16.47;59.97;98982.53;6303166;22;20007;-82
2021/04/30 05:17:18;;;;;;;13.43;10.38;;;;;;;16.54;59.50;98982.09;6277011;22;20010;-83
2021/04/30 05:19:43;;;;;;;15.57;11.15;;;;;;;16.60;59.78;98986.22;6303131;22;19999;-81
2021/04/30 05:22:11;;;;;;;16.63;10.65;;;;;;;16.67;59.35;98980.31;6302595;22;20003;-82
2021/04/30 05:24:37;;;;;;;14.70;11.27;;;;;;;16.71;59.23;98985.88;6303273;22;20014;-80
2021/04/30 05:27:09;;;;;;;15.48;11.38;;;;;;;16.66;59.40;98981.44;6302897;22;20091;-80
2021/04/30 05:29:35;;;;;;;16.38;10.60;;;;;;;16.65;59.75;98990.66;6302875;22;20007;-78
2021/04/30 05:32:00;;;;;;;17.63;11.10;;;;;;;16.69;59.87;98997.00;6277038;22;20010;-79
2021/04/30 05:34:27;;;;;;;20.10;11.05;;;;;;;16.78;59.70;99010.50;6276958;22;20003;-78
2021/04/30 05:36:52;;;;;;;12.75;10.20;;;;;;;16.99;60.03;99001.78;6302318;22;20003;-81
2021/04/30 05:39:18;;;;;;;15.35;9.55;;;;;;;17.27;59.11;99010.31;6276686;22;20025;-80
2021/04/30 05:41:44;;;;;;;13.95;9.18;;;;;;;17.62;58.62;99010.22;6302218;22;20037;-82
2021/04/30 05:44:09;;;;;;;11.85;8.88;;;;;;;18.01;57.67;99007.53;6302296;22;20007;-80
2021/04/30 05:46:34;;;;;;;18.83;9.80;;;;;;;18.42;56.68;99005.22;6302812;22;20003;-80
2021/04/30 05:49:01;;;;;;;12.82;9.00;;;;;;;18.77;55.38;99008.44;6276701;22;20000;-79
2021/04/30 05:51:27;;;;;;;11.48;8.10;;;;;;;19.08;54.74;99012.69;6303482;22;20007;-80
2021/04/30 05:53:52;;;;;;;11.60;7.80;;;;;;;19.35;53.83;99008.56;6302775;22;20133;-82
2021/04/30 05:56:17;;;;;;;9.32;7.80;;;;;;;19.54;53.43;99009.19;6302632;22;20443;-81
2021/04/30 05:58:43;;;;;;;15.52;9.95;;;;;;;19.65;52.27;99010.31;6276435;22;20002;-81
2021/04/30 06:01:08;;;;;;;13.75;9.23;;;;;;;19.75;52.49;99012.59;6302283;22;20026;-82
2021/04/30 06:03:34;;;;;;;10.43;8.40;;;;;;;19.82;52.26;99015.56;6302873;22;20003;-76
2021/04/30 06:05:59;;;;;;;9.88;8.60;;;;;;;19.91;51.78;99018.19;6302094;22;20003;-77
2021/04/30 06:08:25;;;;;;;10.23;7.95;;;;;;;20.02;52.05;99013.09;6303483;22;20057;-75
2021/04/30 06:10:50;;;;;;;12.50;8.52;;;;;;;20.17;51.82;99018.97;6303247;22;20601;-75
2021/04/30 06:13:16;;;;;;;12.27;7.80;;;;;;;20.33;51.34;99024.50;6304175;22;20564;-78
2021/04/30 06:15:42;;;;;;;9.45;7.85;;;;;;;20.51;51.42;99023.09;6303847;22;20026;-79
2021/04/30 06:18:07;;;;;;;11.98;8.43;;;;;;;20.81;51.14;99014.66;6303636;22;20003;-83
2021/04/30 06:20:33;;;;;;;12.18;7.10;;;;;;;21.17;50.86;99023.00;6302853;22;20042;-80
2021/04/30 06:22:58;;;;;;;13.75;8.50;;;;;;;21.51;49.31;99026.22;6303377;22;20004;-80
2021/04/30 06:25:23;;;;;;;12.40;7.40;;;;;;;21.80;48.29;99018.78;6304267;22;20010;-82
2021/04/30 06:27:49;;;;;;;15.05;8.35;;;;;;;22.11;48.42;99028.84;6277853;22;20448;-86
2021/04/30 06:30:15;;;;;;;13.73;7.07;;;;;;;22.42;48.11;99026.44;6277307;22;20460;-84
2021/04/30 06:32:43;;;;;;;12.02;7.78;;;;;;;22.68;47.38;99029.34;6303601;22;20102;-82
2021/04/30 06:35:10;;;;;;;10.85;7.35;;;;;;;22.94;46.38;99035.31;6303138;22;20022;-88
2021/04/30 06:37:35;;;;;;;9.02;6.95;;;;;;;23.10;46.40;99037.97;6278054;22;20383;-91
2021/04/30 06:40:02;;;;;;;9.45;7.03;;;;;;;23.26;45.84;99030.50;6277583;22;20006;-86
2021/04/30 06:42:30;;;;;;;11.48;6.07;;;;;;;23.41;45.45;99015.19;6302620;22;20010;-90
2021/04/30 06:44:56;;;;;;;13.45;6.85;;;;;;;23.52;45.35;99009.88;6305030;22;20331;-84
2021/04/30 06:47:21;;;;;;;8.23;5.50;;;;;;;23.69;45.04;99011.34;6302607;22;19999;-83
2021/04/30 06:49:47;;;;;;;10.55;6.38;;;;;;;23.80;44.83;99015.03;6276619;22;20416;-87
2021/04/30 06:52:13;;;;;;;9.50;6.03;;;;;;;23.89;44.40;99001.13;6276563;22;20554;-79
2021/04/30 06:54:39;;;;;;;14.02;6.45;;;;;;;23.95;44.55;99021.53;6303204;22;20353;-81
2021/04/30 06:57:04;;;;;;;10.05;5.78;;;;;;;24.05;44.53;99022.84;6302634;22;20427;-82
2021/04/30 06:59:30;;;;;;;11.05;6.22;;;;;;;24.08;44.39;99011.22;6302827;22;20424;-82
2021/04/30 07:01:55;;;;;;;7.18;6.43;;;;;;;24.09;44.09;99007.28;6302951;22;20005;-83
2021/04/30 07:04:21;;;;;;;7.65;5.88;;;;;;;24.03;44.06;98999.81;6276375;22;20436;-86
2021/04/30 07:06:46;;;;;;;11.75;7.40;;;;;;;23.74;43.72;99015.69;6277462;22;20003;-80
2021/04/30 07:09:12;;;;;;;10.57;6.88;;;;;;;23.56;44.12;99009.94;6299037;22;20003;-85
2021/04/30 07:11:38;;;;;;;11.65;8.07;;;;;;;23.35;44.66;99005.69;6277494;22;20010;-80
2021/04/30 07:14:05;;;;;;;9.18;7.63;;;;;;;23.24;45.03;99004.72;6303560;22;19999;-82
2021/04/30 07:16:31;;;;;;;10.15;6.97;;;;;;;23.17;45.30;99010.84;6277195;22;20772;-78
2021/04/30 07:18:56;;;;;;;10.48;7.57;;;;;;;23.12;45.30;99006.44;6277467;22;19999;-80
2021/04/30 07:21:22;;;;;;;10.65;7.25;;;;;;;23.02;45.65;98996.09;6305134;22;20082;-80
2021/04/30 07:23:47;;;;;;;11.88;7.28;;;;;;;22.99;46.65;98997.63;6305114;22;20006;-82
2021/04/30 07:26:13;;;;;;;10.85;6.80;;;;;;;22.95;46.57;98996.78;6302759;22;20003;-79
2021/04/30 07:28:38;;;;;;;11.75;7.93;;;;;;;22.89;46.84;98997.41;6303252;22;20408;-80
2021/04/30 07:31:04;;;;;;;10.57;7.22;;;;;;;22.88;47.25;98998.59;6303762;22;20003;-79
2021/04/30 07:33:30;;;;;;;11.18;7.63;;;;;;;22.85;47.03;98994.63;6277647;22;19999;-80
2021/04/30 07:35:55;;;;;;;11.93;7.22;;;;;;;22.78;47.44;98981.66;6277911;22;20321;-79
2021/04/30 07:38:21;;;;;;;12.32;6.90;;;;;;;22.83;47.64;98988.75;6304934;22;19995;-80
2021/04/30 07:40:47;;;;;;;10.88;7.40;;;;;;;22.88;47.55;98990.41;6303400;22;20078;-79
2021/04/30 07:43:15;;;;;;;8.93;6.60;;;;;;;22.96;47.62;99001.09;6304389;22;19995;-80
2021/04/30 07:45:43;;;;;;;9.63;6.72;;;;;;;23.02;48.39;99013.28;6277318;22;20562;-80
2021/04/30 07:48:09;;;;;;;9.00;5.93;;;;;;;23.12;48.04;99003.72;6303582;22;20007;-81
2021/04/30 07:50:36;;;;;;;11.68;7.22;;;;;;;23.12;47.74;99003.72;6304995;22;20455;-82
2021/04/30 07:53:02;;;;;;;10.07;6.28;;;;;;;23.23;47.71;99000.41;6277622;22;20003;-83
2021/04/30 07:55:28;;;;;;;10.43;6.97;;;;;;;23.32;47.68;98992.78;6277156;22;20010;-83
2021/04/30 07:57:54;;;;;;;6.20;5.60;;;;;;;23.45;47.76;98994.19;6277710;22;20003;-83
2021/04/30 08:00:19;;;;;;;8.82;6.55;;;;;;;23.54;47.71;98991.22;6303074;22;20156;-82
2021/04/30 08:02:47;;;;;;;13.32;7.20;;;;;;;23.57;47.63;98985.03;6303426;22;20441;-82
2021/04/30 08:05:13;;;;;;;11.50;7.20;;;;;;;23.62;47.50;98990.19;6277512;22;20332;-82
2021/04/30 08:07:40;;;;;;;7.45;6.25;;;;;;;23.64;47.56;98985.16;6278287;22;20091;-83
2021/04/30 08:10:07;;;;;;;8.43;7.40;;;;;;;23.71;47.40;98986.41;6277812;22;19999;-82
2021/04/30 08:12:32;;;;;;;7.40;6.20;;;;;;;23.73;47.17;98992.28;6277398;22;20408;-82
2021/04/30 08:14:58;;;;;;;6.93;5.95;;;;;;;23.75;47.10;98998.16;6303396;22;20062;-82
2021/04/30 08:17:23;;;;;;;6.97;6.28;;;;;;;23.78;46.88;98979.13;6276691;22;20074;-83
2021/04/30 08:19:49;;;;;;;8.13;6.22;;;;;;;23.85;46.93;98991.31;6277209;22;20331;-82
2021/04/30 08:22:14;;;;;;;13.18;6.80;;;;;;;23.89;47.16;98983.94;6303256;22;20253;-82
2021/04/30 08:24:40;;;;;;;7.05;6.35;;;;;;;23.95;46.53;98980.56;6303112;22;20419;-83
2021/04/30 08:27:06;;;;;;;10.43;6.30;;;;;;;24.01;46.71;98996.63;6303235;22;20002;-83
2021/04/30 08:29:32;;;;;;;7.93;6.45;;;;;;;24.07;46.85;98995.97;6277137;22;20042;-83
2021/04/30 08:31:57;;;;;;;11.45;6.10;;;;;;;24.12;46.52;99005.78;6303217;22;20379;-82
2021/04/30 08:34:23;;;;;;;12.68;6.47;;;;;;;24.12;46.16;99005.78;6302654;22;20034;-83
2021/04/30 08:36:48;;;;;;;11.27;6.65;;;;;;;24.20;46.41;99001.22;6303148;22;19999;-83
2021/04/30 08:39:14;;;;;;;11.43;6.43;;;;;;;24.25;46.06;98989.97;6277380;22;20328;-83
2021/04/30 08:41:40;;;;;;;9.93;5.57;;;;;;;24.25;46.29;98979.03;6277114;22;19999;-82
2021/04/30 08:44:06;;;;;;;8.88;6.50;;;;;;;24.37;45.69;98978.78;6277184;22;20010;-83
2021/04/30 08:46:33;;;;;;;8.10;4.97;;;;;;;24.49;45.49;98979.75;6277308;22;19995;-82
2021/04/30 08:49:06;;;;;;;11.38;6.57;;;;;;;24.56;45.01;98982.53;6277153;22;20009;-81
2021/04/30 08:51:33;;;;;;;11.80;6.30;;;;;;;24.65;44.78;98987.75;6303070;22;20090;-83
2021/04/30 08:54:02;;;;;;;7.78;6.82;;;;;;;24.72;44.76;98983.16;6277349;22;20003;-83
2021/04/30 08:56:28;;;;;;;12.52;7.40;;;;;;;24.74;44.13;98988.25;6277202;22;20099;-84
2021/04/30 08:58:54;;;;;;;9.32;6.15;;;;;;;24.77;44.33;98979.31;6277457;22;20027;-83
2021/04/30 09:01:20;;;;;;;11.82;6.35;;;;;;;24.78;44.47;98986.38;6277194;22;19999;-83
2021/04/30 09:03:50;;;;;;;8.10;5.57;;;;;;;24.81;44.58;98982.88;6302982;22;20340;-83
2021/04/30 09:06:19;;;;;;;8.30;5.90;;;;;;;24.90;44.46;98986.09;6303639;22;20313;-83
2021/04/30 09:08:49;;;;;;;7.47;5.75;;;;;;;24.92;44.22;98975.56;6277293;22;20037;-77
2021/04/30 09:11:36;;;;;;;9.43;6.30;;;;;;;24.99;43.09;98982.28;6302962;22;20041;-78
2021/04/30 09:14:19;;;;;;;10.87;6.20;;;;;;;25.06;44.19;98983.16;6277515;22;20412;-77
2021/04/30 09:16:58;;;;;;;9.63;5.72;;;;;;;25.14;44.63;98975.00;6303358;22;20428;-79
2021/04/30 09:19:32;;;;;;;9.27;5.00;;;;;;;25.19;43.41;98971.94;6302847;22;20003;-79
2021/04/30 09:22:03;;;;;;;14.32;5.97;;;;;;;25.19;43.42;98971.94;6303037;22;20031;-79
2021/04/30 09:24:28;;;;;;;5.53;5.03;;;;;;;25.22;43.45;98971.19;6304294;22;20005;-78
2021/04/30 09:26:55;;;;;;;12.65;5.93;;;;;;;25.28;43.43;98957.91;6303106;22;20003;-79
2021/04/30 09:29:21;;;;;;;9.30;5.18;;;;;;;25.35;41.88;98960.72;6276905;22;19999;-79
2021/04/30 09:31:48;;;;;;;6.72;5.35;;;;;;;25.41;42.04;98960.03;6277335;22;20010;-79
2021/04/30 09:34:21;;;;;;;9.75;4.93;;;;;;;25.50;41.30;98958.91;6277117;22;20332;-80
2021/04/30 09:36:59;;;;;;;7.20;4.57;;;;;;;25.53;41.00;98958.94;6302569;22;20061;-78
2021/04/30 09:39:25;;;;;;;5.75;4.53;;;;;;;25.54;40.03;98955.06;6302583;22;20010;-79
2021/04/30 09:42:10;;;;;;;6.97;4.60;;;;;;;25.50;40.91;98948.78;6276830;22;20000;-79
2021/04/30 09:44:40;;;;;;;6.43;4.00;;;;;;;25.52;40.30;98945.66;6277025;22;20417;-79
2021/04/30 09:47:27;;;;;;;7.32;4.40;;;;;;;25.48;40.48;98934.66;6278914;22;20049;-79
2021/04/30 09:49:58;;;;;;;8.17;5.67;;;;;;;25.48;40.51;98931.16;6306514;22;20327;-78
2021/04/30 09:52:25;;;;;;;8.30;4.03;;;;;;;25.49;40.03;98927.25;6304926;22;20026;-79
2021/04/30 09:54:53;;;;;;;6.65;4.65;;;;;;;25.52;40.51;98924.53;6304863;22;20030;-79
2021/04/30 09:57:22;;;;;;;10.13;4.88;;;;;;;25.60;40.76;98913.63;6304546;22;20420;-79
2021/04/30 09:59:59;;;;;;;9.93;3.90;;;;;;;25.67;38.51;98924.63;6304357;22;19995;-79
2021/04/30 10:02:26;;;;;;;3.85;3.40;;;;;;;25.67;36.54;98917.22;6304697;22;20085;-79
2021/04/30 10:04:54;;;;;;;4.18;3.60;;;;;;;25.64;36.95;98919.91;6304332;22;20333;-79
2021/04/30 10:07:32;;;;;;;5.38;3.47;;;;;;;25.70;37.84;98918.41;6278714;22;20007;-78
2021/04/30 10:10:14;;;;;;;5.38;3.70;;;;;;;25.79;39.12;98913.34;6278923;22;20000;-79
2021/04/30 10:12:42;;;;;;;7.55;3.97;;;;;;;25.89;38.63;98911.88;6304449;22;20503;-78
2021/04/30 10:15:14;;;;;;;5.07;3.33;;;;;;;25.96;37.10;98914.63;6304760;22;20387;-77
2021/04/30 10:17:39;;;;;;;9.95;3.35;;;;;;;26.02;35.41;98907.63;6304567;22;20086;-78
2021/04/30 10:20:06;;;;;;;4.15;2.60;;;;;;;26.10;35.09;98916.69;6278180;22;20004;-78
2021/04/30 10:22:36;;;;;;;5.03;2.90;;;;;;;26.13;35.56;98915.13;6305891;22;20015;-77
2021/04/30 10:25:06;;;;;;;3.72;3.03;;;;;;;26.25;35.83;98922.25;6278944;22;19999;-78
2021/04/30 10:27:37;;;;;;;4.65;2.92;;;;;;;26.31;36.12;98915.22;6303782;22;20088;-78
2021/04/30 10:30:39;;;;;;;4.80;2.97;;;;;;;26.38;35.41;98915.25;6304798;22;20487;-77
2021/04/30 10:33:16;;;;;;;5.85;3.25;;;;;;;26.46;35.95;98913.31;6278337;22;20486;-77
2021/04/30 10:35:51;;;;;;;4.10;3.28;;;;;;;26.52;35.87;98918.03;6304380;22;20007;-78
2021/04/30 10:38:21;;;;;;;6.07;3.33;;;;;;;26.52;34.96;98904.34;6278953;22;20436;-78
2021/04/30 10:40:53;;;;;;;5.93;2.95;;;;;;;26.47;34.11;98910.16;6278844;22;20057;-79
2021/04/30 10:43:21;;;;;;;5.65;2.75;;;;;;;26.46;35.51;98897.63;6278927;22;20034;-78
2021/04/30 10:46:05;;;;;;;6.68;3.88;;;;;;;26.43;37.72;98912.13;6304478;22;19999;-79
2021/04/30 10:48:32;;;;;;;6.20;3.83;;;;;;;26.36;36.76;98901.91;6304190;22;19999;-79
2021/04/30 10:51:16;;;;;;;4.40;2.97;;;;;;;26.39;36.90;98899.56;6304604;22;19995;-79
2021/04/30 10:53:45;;;;;;;4.18;3.33;;;;;;;26.45;35.83;98903.50;6278635;22;20920;-79
2021/04/30 10:56:34;;;;;;;7.63;3.47;;;;;;;26.52;35.22;98893.38;6278636;22;20336;-79
2021/04/30 10:59:00;;;;;;;4.85;2.58;;;;;;;26.61;33.04;98906.72;6304647;22;20034;-79
2021/04/30 11:01:36;;;;;;;3.40;2.13;;;;;;;26.69;33.30;98904.75;6278439;22;20003;-79
2021/04/30 11:04:18;;;;;;;4.47;2.72;;;;;;;26.75;34.21;98892.25;6278249;22;20093;-78
2021/04/30 11:06:53;;;;;;;5.50;3.60;;;;;;;26.84;35.52;98889.13;6304165;22;20137;-77
2021/04/30 11:09:32;;;;;;;6.75;4.30;;;;;;;26.85;34.85;98882.47;6306302;22;20010;-77
2021/04/30 11:12:19;;;;;;;6.88;3.92;;;;;;;26.96;35.41;98893.47;6305752;22;20321;-78
2021/04/30 11:15:10;;;;;;;5.90;3.80;;;;;;;27.07;34.77;98888.75;6277831;22;20348;-78
2021/04/30 11:17:58;;;;;;;4.50;2.67;;;;;;;27.14;31.91;98879.75;6278674;22;20001;-78
2021/04/30 11:20:32;;;;;;;6.38;3.15;;;;;;;27.24;31.32;98867.19;6304356;22;20003;-77
2021/04/30 11:23:23;;;;;;;5.55;2.40;;;;;;;27.32;30.35;98874.25;6304590;22;20002;-78
2021/04/30 11:25:54;;;;;;;6.60;2.15;;;;;;;27.37;30.19;98859.31;6304666;22;20030;-78
2021/04/30 11:28:20;;;;;;;7.50;2.28;;;;;;;27.41;29.90;98863.66;6278648;22;20077;-77